Time;durP1;ratioP1;P1;durP2;ratioP2;P2;SDS_P1;SDS_P2;PMS_P1;PMS_P2;Temp;Humidity;BMP_temperature;BMP_pressure;BME280_temperature;BME280_humidity;BME280_pressure;Samples;Min_cycle;Max_cycle;Signal;HPM_P1;HPM_P2
2021/08/22 00:00:51;;;;;;;15.98;9.48;;;;;;;15.55;81.16;98628.78;5051173;28;20048;-63
2021/08/22 00:03:17;;;;;;;15.48;9.50;;;;;;;15.47;81.32;98618.75;5049477;28;20529;-62
2021/08/22 00:05:43;;;;;;;11.32;8.77;;;;;;;15.42;81.59;98623.06;5033052;28;20075;-63
2021/08/22 00:08:13;;;;;;;15.65;8.82;;;;;;;15.37;81.66;98631.16;5051175;28;20095;-64
2021/08/22 00:10:39;;;;;;;12.90;8.60;;;;;;;15.34;82.14;98630.94;5051277;28;20136;-65
2021/08/22 00:13:05;;;;;;;15.27;9.00;;;;;;;15.27;82.27;98623.28;5050876;28;20499;-63
2021/08/22 00:15:31;;;;;;;13.73;8.35;;;;;;;15.22;82.35;98624.13;5049955;28;20052;-63
2021/08/22 00:17:56;;;;;;;17.13;9.70;;;;;;;15.19;82.04;98616.69;5050986;28;20045;-63
2021/08/22 00:20:28;;;;;;;14.93;9.50;;;;;;;15.16;82.36;98624.50;5050737;28;20049;-63
2021/08/22 00:22:54;;;;;;;14.70;8.23;;;;;;;15.13;82.40;98619.72;5051079;28;20048;-64
2021/08/22 00:25:19;;;;;;;15.23;8.65;;;;;;;15.09;82.19;98619.50;5049609;28;20056;-65
2021/08/22 00:27:47;;;;;;;10.05;7.88;;;;;;;15.06;82.29;98628.09;5051223;28;20183;-63
2021/08/22 00:30:13;;;;;;;10.50;7.65;;;;;;;15.02;82.16;98621.69;5053242;28;20048;-64
2021/08/22 00:32:39;;;;;;;13.40;8.18;;;;;;;14.99;82.02;98617.72;5053501;28;20037;-63
2021/08/22 00:35:05;;;;;;;14.48;9.15;;;;;;;14.98;81.78;98618.81;5054851;28;20560;-65
2021/08/22 00:37:31;;;;;;;10.45;7.43;;;;;;;14.97;81.17;98617.25;5036818;28;20037;-64
2021/08/22 00:39:57;;;;;;;11.23;8.15;;;;;;;14.94;81.74;98614.31;5054550;28;20044;-64
2021/08/22 00:42:25;;;;;;;15.93;8.50;;;;;;;14.91;81.84;98620.22;5054254;28;20048;-63
2021/08/22 00:44:51;;;;;;;12.00;7.35;;;;;;;14.89;80.96;98625.06;5054620;28;20092;-64
2021/08/22 00:47:17;;;;;;;11.20;7.57;;;;;;;14.87;80.85;98627.22;5054294;28;20584;-64
2021/08/22 00:49:43;;;;;;;12.07;7.40;;;;;;;14.84;81.04;98615.25;5053173;28;20162;-65
2021/08/22 00:52:09;;;;;;;13.77;7.40;;;;;;;14.83;81.52;98615.53;5053185;28;20052;-64
2021/08/22 00:54:42;;;;;;;12.23;7.63;;;;;;;14.77;81.61;98620.91;5036789;28;20045;-63
2021/08/22 00:57:10;;;;;;;13.15;7.95;;;;;;;14.74;81.57;98612.69;5052860;28;20049;-63
2021/08/22 00:59:37;;;;;;;12.20;7.93;;;;;;;14.72;81.66;98609.50;5054361;28;20087;-64
2021/08/22 01:02:04;;;;;;;10.65;7.95;;;;;;;14.70;81.48;98611.66;5052781;28;20052;-64
2021/08/22 01:04:35;;;;;;;12.68;7.82;;;;;;;14.68;81.62;98614.63;5054454;28;20045;-64
2021/08/22 01:07:36;;;;;;;13.93;7.72;;;;;;;14.67;81.63;98604.22;5036252;28;20044;-64
2021/08/22 01:10:06;;;;;;;10.68;7.60;;;;;;;14.62;81.27;98606.94;5054447;28;20314;-64
2021/08/22 01:12:34;;;;;;;11.82;8.15;;;;;;;14.58;81.19;98604.03;5053878;28;20037;-64
2021/08/22 01:15:06;;;;;;;14.95;7.97;;;;;;;14.56;81.75;98608.88;5053818;28;20052;-65
2021/08/22 01:17:34;;;;;;;13.55;8.80;;;;;;;14.52;82.11;98607.84;5053738;28;20494;-62
2021/08/22 01:20:11;;;;;;;15.00;9.23;;;;;;;14.41;82.31;98598.31;5052498;28;20518;-64
2021/08/22 01:22:39;;;;;;;12.02;8.45;;;;;;;14.43;82.16;98612.97;5052648;28;20272;-63
2021/08/22 01:25:06;;;;;;;11.27;8.50;;;;;;;14.40;81.77;98608.19;5052629;28;20064;-64
2021/08/22 01:27:33;;;;;;;12.65;8.35;;;;;;;14.37;82.17;98614.09;5052009;28;20045;-64
2021/08/22 01:30:08;;;;;;;12.45;8.20;;;;;;;14.33;82.15;98621.06;5052589;28;20075;-64
2021/08/22 01:32:39;;;;;;;16.10;7.88;;;;;;;14.29;81.94;98618.16;5035632;28;20076;-62
2021/08/22 01:35:05;;;;;;;;;;;;;;;14.23;82.70;98621.94;5052918;28;20091;-63
2021/08/22 01:37:31;;;;;;;10.23;7.50;;;;;;;14.22;82.54;98627.56;5053290;28;19965;-62
2021/08/22 01:39:58;;;;;;;14.15;8.60;;;;;;;14.19;82.46;98620.13;5052211;28;20194;-63
2021/08/22 01:42:24;;;;;;;11.13;8.13;;;;;;;14.14;82.29;98615.63;5053587;28;20094;-63
2021/08/22 01:44:50;;;;;;;12.00;8.10;;;;;;;14.12;82.79;98619.63;5053311;28;20528;-63
2021/08/22 01:47:16;;;;;;;10.90;8.18;;;;;;;14.07;82.76;98618.59;5053329;28;20037;-63
2021/08/22 01:49:44;;;;;;;15.50;8.48;;;;;;;14.03;82.60;98617.59;5035337;28;20567;-63
2021/08/22 01:52:12;;;;;;;13.45;8.60;;;;;;;14.01;82.75;98616.25;5035191;28;20048;-63
2021/08/22 01:54:37;;;;;;;14.50;8.30;;;;;;;13.98;82.94;98628.28;5051778;28;20045;-61
2021/08/22 01:57:04;;;;;;;12.48;8.40;;;;;;;13.96;83.11;98618.97;5052035;28;20406;-63
2021/08/22 01:59:36;;;;;;;11.80;8.55;;;;;;;13.93;83.30;98620.31;5053337;28;20043;-64
2021/08/22 02:02:04;;;;;;;13.15;8.98;;;;;;;13.92;82.94;98615.28;5052897;28;20502;-64
2021/08/22 02:04:40;;;;;;;10.82;7.63;;;;;;;13.91;82.73;98619.00;5053262;28;20040;-63
2021/08/22 02:07:17;;;;;;;12.63;8.05;;;;;;;13.89;82.88;98621.94;5052709;28;20056;-64
2021/08/22 02:10:05;;;;;;;13.65;7.32;;;;;;;13.88;82.73;98635.53;5052742;28;20098;-64
2021/08/22 02:12:32;;;;;;;13.93;8.55;;;;;;;13.82;82.81;98624.94;5052676;28;20461;-64
2021/08/22 02:15:10;;;;;;;10.32;8.52;;;;;;;13.81;82.95;98631.31;5052947;28;20045;-64
2021/08/22 02:17:47;;;;;;;10.98;8.00;;;;;;;13.77;82.87;98632.16;5034847;28;20116;-64
2021/08/22 02:20:14;;;;;;;15.35;8.25;;;;;;;13.75;82.43;98636.97;5051238;28;20053;-63
2021/08/22 02:22:42;;;;;;;15.05;7.68;;;;;;;13.72;83.03;98640.16;5051604;28;20056;-64
2021/08/22 02:25:09;;;;;;;11.70;8.07;;;;;;;13.67;83.12;98633.00;5035344;28;20413;-64
2021/08/22 02:27:36;;;;;;;11.45;8.45;;;;;;;13.68;82.74;98639.13;5034288;28;20068;-64
2021/08/22 02:30:03;;;;;;;10.38;7.47;;;;;;;13.64;82.96;98634.34;5034662;28;20041;-63
2021/08/22 02:32:34;;;;;;;14.55;8.52;;;;;;;13.62;83.11;98630.38;5052361;28;20418;-64
2021/08/22 02:35:00;;;;;;;10.40;8.40;;;;;;;13.61;83.29;98636.75;5051311;28;20041;-65
2021/08/22 02:37:28;;;;;;;13.63;7.72;;;;;;;13.61;83.37;98634.09;5051950;28;20518;-64
2021/08/22 02:39:56;;;;;;;14.40;7.85;;;;;;;13.59;83.18;98629.06;5050629;28;20047;-64
2021/08/22 02:42:22;;;;;;;13.48;8.50;;;;;;;13.56;83.33;98637.59;5052218;28;20045;-64
2021/08/22 02:44:48;;;;;;;12.65;7.40;;;;;;;13.57;83.04;98644.50;5034609;28;20181;-64
2021/08/22 02:47:14;;;;;;;11.57;7.05;;;;;;;13.53;83.45;98642.66;5050620;28;20037;-64
2021/08/22 02:49:41;;;;;;;12.02;7.68;;;;;;;13.53;83.53;98645.31;5052217;28;20609;-65
2021/08/22 02:52:10;;;;;;;9.50;7.63;;;;;;;13.67;83.09;98643.66;5050283;28;20045;-64
2021/08/22 02:54:38;;;;;;;10.88;7.53;;;;;;;13.91;82.46;98646.41;5052458;28;20044;-64
2021/08/22 02:57:04;;;;;;;11.52;7.05;;;;;;;14.25;80.74;98648.31;5052131;28;20540;-64
2021/08/22 02:59:30;;;;;;;13.02;6.53;;;;;;;14.44;79.65;98651.91;5052218;28;20037;-63
2021/08/22 03:01:56;;;;;;;10.85;6.30;;;;;;;14.69;78.63;98650.09;5050271;28;20049;-65
2021/08/22 03:04:22;;;;;;;8.93;7.07;;;;;;;14.97;77.89;98661.78;5051639;28;20139;-65
2021/08/22 03:06:48;;;;;;;10.90;6.60;;;;;;;15.17;77.12;98658.88;5033519;28;20075;-65
2021/08/22 03:09:25;;;;;;;12.27;6.90;;;;;;;15.38;76.15;98659.47;5067981;28;20135;-65
2021/08/22 03:11:51;;;;;;;10.23;6.70;;;;;;;15.58;75.51;98662.94;5066969;28;20423;-64
2021/08/22 03:14:18;;;;;;;7.03;5.97;;;;;;;15.80;74.59;98681.13;5066917;28;20052;-65
2021/08/22 03:16:44;;;;;;;6.70;5.85;;;;;;;15.95;74.00;98674.75;5066755;28;20050;-64
2021/08/22 03:19:10;;;;;;;8.98;6.45;;;;;;;15.98;73.78;98679.53;5050588;28;20147;-65
2021/08/22 03:21:37;;;;;;;9.48;6.38;;;;;;;15.90;74.43;98675.63;5068415;28;20115;-64
2021/08/22 03:24:03;;;;;;;7.07;6.15;;;;;;;15.78;74.72;98677.94;5050538;28;20045;-65
2021/08/22 03:26:29;;;;;;;7.85;6.45;;;;;;;15.64;75.56;98683.16;5068306;28;20123;-63
2021/08/22 03:28:55;;;;;;;12.23;7.05;;;;;;;15.49;76.30;98678.81;5068340;28;20140;-65
2021/08/22 03:31:23;;;;;;;9.75;6.75;;;;;;;15.42;76.65;98668.47;5068278;28;20115;-65
2021/08/22 03:33:48;;;;;;;8.55;6.93;;;;;;;15.43;77.34;98688.75;5066808;28;20139;-64
2021/08/22 03:36:14;;;;;;;9.52;7.55;;;;;;;15.40;77.45;98693.88;5068263;28;20048;-64
2021/08/22 03:38:40;;;;;;;9.35;7.53;;;;;;;15.40;77.96;98691.22;5050409;28;20048;-64
2021/08/22 03:41:06;;;;;;;10.20;7.90;;;;;;;15.42;78.31;98681.84;5033671;28;20033;-65
2021/08/22 03:43:32;;;;;;;10.65;8.32;;;;;;;15.41;78.65;98684.78;5068370;28;20048;-64
2021/08/22 03:45:58;;;;;;;10.75;7.70;;;;;;;15.44;78.50;98689.53;5068310;28;20036;-66
2021/08/22 03:48:28;;;;;;;10.63;8.05;;;;;;;15.53;78.53;98687.03;5068207;28;20079;-63
2021/08/22 03:50:55;;;;;;;11.95;8.27;;;;;;;15.48;78.76;98695.13;5066946;28;20044;-64
2021/08/22 03:53:20;;;;;;;11.60;8.02;;;;;;;15.55;78.94;98693.69;5067673;28;20041;-64
2021/08/22 03:55:46;;;;;;;14.55;7.90;;;;;;;15.60;78.92;98693.63;5068038;28;20041;-64
2021/08/22 03:58:13;;;;;;;13.20;8.75;;;;;;;15.70;78.56;98691.94;5067805;28;20045;-63
2021/08/22 04:00:42;;;;;;;11.27;7.05;;;;;;;15.74;78.64;98696.41;5050618;28;20087;-63
2021/08/22 04:03:08;;;;;;;13.38;8.23;;;;;;;15.76;78.61;98702.25;5066531;28;20048;-65
2021/08/22 04:06:09;;;;;;;11.15;7.95;;;;;;;15.71;78.66;98701.56;5085222;28;20495;-64
2021/08/22 04:08:35;;;;;;;13.57;8.45;;;;;;;15.75;78.58;98692.66;5084944;28;20090;-63
2021/08/22 04:11:02;;;;;;;10.35;7.18;;;;;;;15.81;77.93;98696.84;5085299;28;20498;-64
2021/08/22 04:13:27;;;;;;;12.48;8.00;;;;;;;15.82;78.29;98692.28;5085111;28;20521;-64
2021/08/22 04:15:53;;;;;;;11.40;8.07;;;;;;;15.74;78.75;98696.41;5085239;28;20076;-65
2021/08/22 04:18:19;;;;;;;13.00;8.07;;;;;;;15.74;78.89;98698.31;5085112;28;20134;-64
2021/08/22 04:20:44;;;;;;;12.32;8.70;;;;;;;15.72;78.71;98685.22;5071954;28;20048;-64
2021/08/22 04:23:11;;;;;;;12.45;8.23;;;;;;;15.77;78.98;98698.50;5071509;28;20544;-63
2021/08/22 04:25:37;;;;;;;13.13;8.60;;;;;;;15.84;79.04;98696.28;5054866;28;20052;-64
2021/08/22 04:28:05;;;;;;;12.63;7.38;;;;;;;15.79;78.83;98698.22;5071447;28;20058;-62
2021/08/22 04:30:31;;;;;;;15.23;7.97;;;;;;;15.78;79.27;98699.31;5071511;28;20044;-65
2021/08/22 04:32:57;;;;;;;13.05;8.00;;;;;;;15.76;79.19;98704.13;5071262;28;20143;-64
2021/08/22 04:35:23;;;;;;;13.05;8.40;;;;;;;15.66;79.77;98703.16;5054771;28;20087;-64
2021/08/22 04:37:50;;;;;;;15.07;8.93;;;;;;;15.69;79.62;98701.03;5057480;28;20072;-63
2021/08/22 04:40:16;;;;;;;16.05;9.75;;;;;;;15.71;79.83;98694.31;5053780;28;20477;-64
2021/08/22 04:42:43;;;;;;;14.75;10.30;;;;;;;15.73;79.83;98694.03;5053797;28;20067;-65
2021/08/22 04:45:11;;;;;;;14.15;9.85;;;;;;;15.75;79.86;98706.00;5052489;28;20048;-65
2021/08/22 04:47:37;;;;;;;10.77;7.05;;;;;;;15.74;79.85;98706.31;5053600;28;20060;-65
2021/08/22 04:50:04;;;;;;;10.77;6.70;;;;;;;15.77;79.72;98708.41;5053634;28;20586;-65
2021/08/22 04:52:30;;;;;;;9.55;6.05;;;;;;;15.81;79.40;98704.88;5053796;28;20059;-64
2021/08/22 04:54:56;;;;;;;9.07;6.15;;;;;;;15.79;79.32;98711.56;5053866;28;20044;-65
2021/08/22 04:57:21;;;;;;;8.40;5.72;;;;;;;15.84;79.22;98720.31;5052104;28;20591;-65
2021/08/22 04:59:47;;;;;;;6.72;4.63;;;;;;;15.75;79.40;98721.25;5053389;28;20099;-65
2021/08/22 05:02:14;;;;;;;7.38;4.95;;;;;;;15.82;79.18;98721.69;5052237;28;20041;-66
2021/08/22 05:04:42;;;;;;;10.35;5.75;;;;;;;15.80;79.07;98729.22;5053532;28;20090;-65
2021/08/22 05:07:08;;;;;;;5.07;4.22;;;;;;;15.84;78.92;98724.88;5051848;28;20127;-65
2021/08/22 05:09:34;;;;;;;6.18;4.07;;;;;;;15.89;78.42;98727.47;5053500;28;20045;-64
2021/08/22 05:12:00;;;;;;;5.93;4.43;;;;;;;15.98;77.66;98731.09;5053391;28;20073;-64
2021/08/22 05:14:32;;;;;;;5.32;4.20;;;;;;;16.07;77.97;98731.25;5053419;28;20123;-62
2021/08/22 05:17:03;;;;;;;7.20;5.45;;;;;;;16.11;78.01;98733.03;5052678;28;20526;-65
2021/08/22 05:19:30;;;;;;;7.10;4.68;;;;;;;16.06;77.52;98732.31;5051711;28;20044;-64
2021/08/22 05:21:56;;;;;;;5.07;4.10;;;;;;;15.97;77.29;98736.72;5051729;28;20052;-65
2021/08/22 05:24:21;;;;;;;5.72;3.60;;;;;;;15.92;77.42;98732.25;5053421;28;20051;-65
2021/08/22 05:26:48;;;;;;;5.18;3.95;;;;;;;15.91;77.13;98733.31;5053146;28;20041;-63
2021/08/22 05:29:14;;;;;;;4.63;3.33;;;;;;;16.01;76.83;98740.41;5051805;28;20057;-63
2021/08/22 05:31:40;;;;;;;5.00;2.70;;;;;;;16.09;75.17;98734.44;5034193;28;20037;-63
2021/08/22 05:34:06;;;;;;;3.47;2.78;;;;;;;16.19;75.29;98738.84;5053184;28;20052;-64
2021/08/22 05:36:37;;;;;;;4.72;3.35;;;;;;;16.41;74.70;98738.22;5034960;28;20037;-66
2021/08/22 05:39:03;;;;;;;4.18;3.10;;;;;;;16.55;74.36;98742.53;5051686;28;20053;-64
2021/08/22 05:41:29;;;;;;;3.33;2.60;;;;;;;16.78;73.00;98740.84;5052868;28;20372;-64
2021/08/22 05:43:56;;;;;;;3.10;2.80;;;;;;;17.04;71.42;98743.09;5051399;28;20391;-63
2021/08/22 05:46:23;;;;;;;3.90;2.97;;;;;;;17.16;70.82;98748.75;5018725;28;20044;-64
2021/08/22 05:48:48;;;;;;;4.05;2.67;;;;;;;17.27;69.93;98751.25;5052230;28;20524;-64
2021/08/22 05:51:20;;;;;;;3.95;2.60;;;;;;;17.22;68.93;98752.13;5052407;28;20517;-65
2021/08/22 05:53:47;;;;;;;3.28;2.83;;;;;;;17.06;69.07;98756.19;5052889;28;20053;-66
2021/08/22 05:56:13;;;;;;;5.38;3.75;;;;;;;16.82;69.70;98743.72;5052595;28;20040;-66
2021/08/22 05:58:38;;;;;;;2.83;2.40;;;;;;;16.77;69.84;98736.59;5051016;28;20041;-65
2021/08/22 06:01:04;;;;;;;2.88;2.55;;;;;;;16.77;70.32;98736.59;5051199;28;20048;-65
2021/08/22 06:03:31;;;;;;;3.55;3.10;;;;;;;16.80;70.45;98740.56;5050825;28;20415;-64
2021/08/22 06:05:58;;;;;;;3.10;2.75;;;;;;;16.79;70.29;98750.50;5052099;28;20099;-65
2021/08/22 06:08:25;;;;;;;4.00;2.70;;;;;;;16.86;70.11;98752.78;5051797;28;20433;-65
2021/08/22 06:10:51;;;;;;;3.85;2.92;;;;;;;16.94;69.91;98753.97;5052104;28;20037;-65
2021/08/22 06:13:16;;;;;;;5.32;2.70;;;;;;;16.89;69.51;98751.41;5050591;28;20071;-66
2021/08/22 06:15:42;;;;;;;3.00;2.70;;;;;;;16.86;69.76;98762.69;5050619;28;20052;-64
2021/08/22 06:18:08;;;;;;;3.90;2.88;;;;;;;16.83;70.46;98755.25;5051902;28;20175;-65
2021/08/22 06:20:35;;;;;;;4.38;2.67;;;;;;;16.82;69.85;98759.78;5052018;28;20041;-65
2021/08/22 06:23:01;;;;;;;3.20;2.33;;;;;;;16.71;70.30;98758.38;5051935;28;20044;-65
2021/08/22 06:25:26;;;;;;;2.55;2.17;;;;;;;16.75;70.21;98762.81;5051866;28;20041;-66
2021/08/22 06:27:52;;;;;;;4.55;2.28;;;;;;;16.82;69.86;98764.34;5051612;28;20068;-66
2021/08/22 06:30:18;;;;;;;6.00;2.50;;;;;;;16.76;70.12;98766.31;5033769;28;20437;-65
2021/08/22 06:32:44;;;;;;;4.72;2.95;;;;;;;16.76;70.02;98772.47;5050608;28;20506;-63
2021/08/22 06:35:19;;;;;;;3.22;2.30;;;;;;;16.76;70.42;98760.97;5051566;28;20048;-62
2021/08/22 06:37:45;;;;;;;2.00;1.73;;;;;;;16.85;70.22;98763.75;5051760;28;20045;-63
2021/08/22 06:40:11;;;;;;;3.03;2.20;;;;;;;16.88;69.58;98768.53;5050325;28;20487;-65
2021/08/22 06:42:37;;;;;;;4.20;2.00;;;;;;;16.92;69.11;98766.88;5049968;28;20442;-61
2021/08/22 06:45:09;;;;;;;3.85;1.70;;;;;;;16.85;68.24;98769.13;5051368;28;20549;-65
2021/08/22 06:47:35;;;;;;;2.03;1.60;;;;;;;16.88;68.40;98771.22;5051603;28;20045;-65
2021/08/22 06:50:03;;;;;;;2.47;1.73;;;;;;;16.87;67.53;98778.44;5048672;28;20082;-65
2021/08/22 06:52:29;;;;;;;2.00;1.60;;;;;;;16.86;67.27;98781.44;5028158;28;20076;-64
2021/08/22 06:54:55;;;;;;;3.38;1.90;;;;;;;16.89;67.20;98776.28;5031359;28;20495;-62
2021/08/22 06:57:22;;;;;;;3.58;1.88;;;;;;;16.62;67.92;98786.84;5031150;28;20125;-62
2021/08/22 06:59:48;;;;;;;2.75;1.60;;;;;;;16.64;67.52;98776.66;5031181;28;20132;-64
2021/08/22 07:02:14;;;;;;;2.92;1.83;;;;;;;16.73;67.24;98789.06;5031441;28;20049;-61
2021/08/22 07:04:41;;;;;;;2.92;1.88;;;;;;;16.70;66.75;98797.69;5031337;28;20057;-63
2021/08/22 07:07:08;;;;;;;2.72;1.70;;;;;;;16.45;66.91;98793.53;5030357;28;20056;-63
2021/08/22 07:09:34;;;;;;;2.38;1.90;;;;;;;16.46;66.78;98795.13;5029784;28;20045;-62
2021/08/22 07:12:00;;;;;;;1.77;1.67;;;;;;;16.39;66.03;98802.72;5029591;28;20443;-64
2021/08/22 07:14:25;;;;;;;2.38;1.77;;;;;;;16.48;65.53;98800.19;5031028;28;20046;-64
2021/08/22 07:16:51;;;;;;;1.77;1.67;;;;;;;16.41;65.28;98792.50;5030874;28;20049;-64
2021/08/22 07:19:17;;;;;;;2.65;2.10;;;;;;;16.53;65.59;98800.91;5031396;28;20058;-64
2021/08/22 07:21:42;;;;;;;3.28;2.00;;;;;;;16.67;64.69;98800.94;5030702;28;20046;-62
2021/08/22 07:24:09;;;;;;;3.28;1.90;;;;;;;16.69;64.70;98808.69;5031414;28;20494;-63
2021/08/22 07:26:38;;;;;;;2.20;1.77;;;;;;;16.78;64.34;98810.44;5031248;28;20042;-62
2021/08/22 07:29:05;;;;;;;4.07;2.15;;;;;;;16.86;64.52;98814.34;5030032;28;20418;-62
2021/08/22 07:31:31;;;;;;;1.95;1.75;;;;;;;16.89;63.65;98808.41;5029871;28;20041;-63
2021/08/22 07:33:57;;;;;;;3.65;1.80;;;;;;;16.91;63.90;98810.78;5031449;28;20049;-64
2021/08/22 07:36:22;;;;;;;1.95;1.75;;;;;;;16.84;63.77;98813.03;5030492;28;20042;-63
2021/08/22 07:38:48;;;;;;;2.42;1.90;;;;;;;16.94;64.50;98826.25;5031037;28;20108;-63
2021/08/22 07:41:14;;;;;;;2.80;1.80;;;;;;;16.79;64.43;98820.09;5030800;28;20044;-66
2021/08/22 07:43:40;;;;;;;2.25;1.65;;;;;;;16.78;64.05;98815.78;5031038;28;20092;-64
2021/08/22 07:46:06;;;;;;;2.08;1.33;;;;;;;16.83;64.42;98822.97;5031093;28;20037;-65
2021/08/22 07:48:31;;;;;;;2.15;1.40;;;;;;;16.77;64.46;98835.63;5029244;28;20534;-66
2021/08/22 07:50:57;;;;;;;2.35;1.80;;;;;;;16.76;64.65;98830.56;5030322;28;20046;-66
2021/08/22 07:53:25;;;;;;;2.70;1.80;;;;;;;16.86;64.98;98827.72;5029504;28;20135;-61
2021/08/22 07:55:51;;;;;;;2.05;1.83;;;;;;;16.94;64.16;98835.09;5033838;28;20041;-63
2021/08/22 07:58:16;;;;;;;5.55;1.95;;;;;;;16.99;64.48;98836.88;5033575;28;20538;-65
2021/08/22 08:00:42;;;;;;;3.38;2.00;;;;;;;17.10;63.71;98835.63;5033364;28;20136;-64
2021/08/22 08:03:08;;;;;;;5.22;2.13;;;;;;;17.16;63.65;98842.50;5016485;28;20060;-63
2021/08/22 08:05:34;;;;;;;2.20;2.00;;;;;;;17.12;63.64;98846.03;5034482;28;20049;-69
2021/08/22 08:08:00;;;;;;;3.00;1.83;;;;;;;17.11;63.11;98850.59;5034077;28;20084;-63
2021/08/22 08:10:26;;;;;;;2.05;1.85;;;;;;;17.20;63.39;98840.00;5034339;28;20414;-66
2021/08/22 08:12:52;;;;;;;2.40;2.03;;;;;;;17.38;62.87;98843.72;5034336;28;20083;-64
2021/08/22 08:15:18;;;;;;;2.97;2.15;;;;;;;17.43;62.45;98849.78;5034273;28;20096;-66
2021/08/22 08:17:45;;;;;;;2.72;2.20;;;;;;;17.33;62.69;98852.66;5034187;28;20042;-65
2021/08/22 08:20:12;;;;;;;3.00;1.95;;;;;;;17.27;62.93;98858.41;5032924;28;20132;-66
2021/08/22 08:22:37;;;;;;;2.67;1.95;;;;;;;17.39;62.97;98856.03;5034275;28;20045;-64
2021/08/22 08:25:03;;;;;;;2.88;1.95;;;;;;;17.51;62.04;98853.69;5033223;28;20044;-65
2021/08/22 08:27:29;;;;;;;3.03;2.00;;;;;;;17.45;61.30;98852.97;5034119;28;20068;-64
2021/08/22 08:29:55;;;;;;;4.13;1.70;;;;;;;17.46;61.73;98862.59;5034368;28;20037;-67
2021/08/22 08:32:20;;;;;;;2.78;2.00;;;;;;;17.48;61.81;98860.41;5034155;28;20049;-65
2021/08/22 08:34:48;;;;;;;2.30;2.00;;;;;;;17.68;61.68;98863.81;5034265;28;20034;-66
2021/08/22 08:37:14;;;;;;;6.70;2.40;;;;;;;17.90;60.68;98860.47;5033940;28;20041;-65
2021/08/22 08:39:40;;;;;;;3.22;2.25;;;;;;;17.84;60.60;98861.66;5034471;28;20041;-65
2021/08/22 08:42:24;;;;;;;5.13;2.40;;;;;;;17.92;61.53;98863.66;5033537;28;20418;-64
2021/08/22 08:44:54;;;;;;;4.18;2.08;;;;;;;18.09;61.45;98855.03;5033601;28;20536;-62
2021/08/22 08:47:22;;;;;;;3.22;2.10;;;;;;;18.20;60.68;98869.00;5032558;28;20049;-63
2021/08/22 08:49:47;;;;;;;2.83;2.05;;;;;;;18.19;61.04;98862.84;5033920;28;20045;-65
2021/08/22 08:52:32;;;;;;;5.07;2.08;;;;;;;18.20;61.59;98863.63;5033507;28;20562;-63
2021/08/22 08:55:06;;;;;;;2.85;2.17;;;;;;;18.29;60.50;98873.34;5033597;28;20511;-64
2021/08/22 08:57:33;;;;;;;3.65;2.08;;;;;;;18.43;60.04;98867.19;5033898;28;20051;-64
2021/08/22 08:59:59;;;;;;;6.93;2.45;;;;;;;18.50;60.11;98871.03;5033246;28;20045;-65
2021/08/22 09:02:25;;;;;;;2.53;2.05;;;;;;;18.72;59.22;98872.97;5033396;28;20045;-63
2021/08/22 09:05:10;;;;;;;2.88;2.22;;;;;;;18.99;58.63;98874.78;5033348;28;20046;-64
2021/08/22 09:07:58;;;;;;;2.70;2.40;;;;;;;19.13;58.11;98872.03;5033088;28;20103;-64
2021/08/22 09:10:39;;;;;;;2.83;2.17;;;;;;;18.96;56.91;98874.59;5033252;28;20549;-65
2021/08/22 09:13:42;;;;;;;3.47;1.83;;;;;;;19.04;57.44;98873.88;5032009;28;20054;-65
2021/08/22 09:16:13;;;;;;;4.65;2.58;;;;;;;19.26;56.28;98873.84;5033521;28;20463;-65
2021/08/22 09:19:18;;;;;;;5.50;2.40;;;;;;;19.40;55.11;98873.75;5033421;28;20034;-65
2021/08/22 09:22:21;;;;;;;5.82;2.47;;;;;;;19.48;54.75;98873.03;5033042;28;20052;-65
2021/08/22 09:25:34;;;;;;;3.22;2.08;;;;;;;19.52;54.46;98881.25;5033269;28;20140;-64
2021/08/22 09:28:31;;;;;;;2.25;1.75;;;;;;;19.32;55.31;98879.88;5032988;28;20502;-65
2021/08/22 09:31:18;;;;;;;5.18;2.42;;;;;;;19.29;54.72;98891.25;5032906;28;20073;-64
2021/08/22 09:34:21;;;;;;;4.15;2.15;;;;;;;19.29;54.01;98883.19;5033166;28;20052;-64
2021/08/22 09:37:11;;;;;;;5.28;1.70;;;;;;;19.22;55.56;98882.84;5015114;28;20458;-64
2021/08/22 09:40:15;;;;;;;2.60;2.20;;;;;;;19.31;53.50;98885.56;5032747;28;20049;-64
2021/08/22 09:43:15;;;;;;;3.75;2.30;;;;;;;19.35;53.14;98892.69;5032457;28;20050;-65
2021/08/22 09:46:02;;;;;;;2.30;1.83;;;;;;;19.42;51.71;98887.69;5032917;28;20045;-65
2021/08/22 09:49:05;;;;;;;2.08;1.88;;;;;;;19.40;50.33;98889.88;5032676;28;20535;-64
2021/08/22 09:52:09;;;;;;;2.00;1.70;;;;;;;19.24;49.80;98896.75;5030866;28;20053;-65
2021/08/22 09:54:42;;;;;;;5.75;2.63;;;;;;;19.03;51.45;98891.06;5030958;28;20576;-67
2021/08/22 09:57:39;;;;;;;6.53;2.20;;;;;;;19.19;52.39;98886.13;5032243;28;20625;-66
2021/08/22 10:00:14;;;;;;;5.45;2.10;;;;;;;19.30;50.15;98898.22;5033248;28;20045;-67
2021/08/22 10:02:58;;;;;;;2.47;1.85;;;;;;;19.60;48.68;98888.56;5031123;28;20517;-65
2021/08/22 10:05:47;;;;;;;2.15;1.95;;;;;;;19.80;49.21;98892.66;5032116;28;20511;-65
2021/08/22 10:08:22;;;;;;;3.70;2.03;;;;;;;20.13;48.57;98887.69;5030508;28;20151;-65
2021/08/22 10:10:50;;;;;;;2.63;2.10;;;;;;;20.16;48.81;98892.47;5014353;28;20621;-67
2021/08/22 10:13:15;;;;;;;5.20;2.40;;;;;;;20.15;48.86;98892.78;5030896;28;20418;-65
2021/08/22 10:15:43;;;;;;;4.55;2.10;;;;;;;20.17;48.63;98899.41;5032225;28;20038;-68
2021/08/22 10:18:08;;;;;;;5.10;1.80;;;;;;;20.33;47.93;98896.31;5030357;28;20072;-65
2021/08/22 10:20:45;;;;;;;2.42;1.80;;;;;;;20.49;47.24;98904.72;5031913;28;20510;-65
2021/08/22 10:23:41;;;;;;;3.88;2.10;;;;;;;20.53;46.62;98894.91;5032077;28;20041;-66
2021/08/22 10:26:47;;;;;;;2.75;1.75;;;;;;;20.48;46.83;98908.53;4999201;28;20037;-65
2021/08/22 10:29:21;;;;;;;2.40;1.92;;;;;;;20.53;47.19;98908.38;5032825;28;20618;-64
2021/08/22 10:31:50;;;;;;;2.88;1.95;;;;;;;20.45;46.98;98912.63;5030784;28;20041;-67
2021/08/22 10:34:20;;;;;;;3.00;2.03;;;;;;;20.37;47.64;98913.41;5032120;28;20053;-66
2021/08/22 10:36:45;;;;;;;;;;;;;;;20.36;47.40;98909.13;5032377;28;20088;-66
2021/08/22 10:39:21;;;;;;;3.65;1.83;;;;;;;20.49;47.19;98916.28;5031962;28;19928;-66
2021/08/22 10:41:57;;;;;;;3.10;1.83;;;;;;;20.55;46.33;98912.34;5030269;28;20136;-66
2021/08/22 10:44:32;;;;;;;3.05;2.10;;;;;;;20.71;46.73;98917.31;5031533;28;20045;-65
2021/08/22 10:46:59;;;;;;;3.83;2.17;;;;;;;20.81;46.45;98914.28;5030121;28;20045;-65
2021/08/22 10:49:50;;;;;;;3.15;2.10;;;;;;;20.90;46.36;98925.84;5029989;28;20132;-66
2021/08/22 10:52:25;;;;;;;4.05;1.95;;;;;;;20.68;46.39;98936.75;5031152;28;20089;-65
2021/08/22 10:55:05;;;;;;;6.20;2.10;;;;;;;20.65;46.77;98930.13;5031435;28;20048;-65
2021/08/22 10:57:48;;;;;;;2.40;2.03;;;;;;;20.56;46.92;98922.03;5031284;28;20045;-62
2021/08/22 11:00:29;;;;;;;2.08;1.88;;;;;;;20.42;47.04;98922.13;5031216;28;20072;-63
2021/08/22 12:06:20;;;;;;;3.78;2.08;;;;;;;20.46;44.95;98945.72;5666045;24;20270;-63
2021/08/22 12:08:47;;;;;;;2.42;1.90;;;;;;;20.48;46.12;98946.22;4747299;30;20123;-64
2021/08/22 12:11:17;;;;;;;3.75;2.17;;;;;;;20.49;46.46;98953.97;4735967;30;20580;-63
2021/08/22 12:13:45;;;;;;;4.97;2.08;;;;;;;20.46;46.45;98948.41;4734465;30;20098;-65
2021/08/22 12:16:30;;;;;;;2.72;1.67;;;;;;;20.34;47.19;98955.19;4734531;30;20530;-63
2021/08/22 12:19:18;;;;;;;1.98;1.77;;;;;;;20.03;47.16;98960.63;4735399;30;20190;-63
2021/08/22 12:21:44;;;;;;;3.88;2.38;;;;;;;19.88;48.32;98958.34;4735793;30;20048;-64
2021/08/22 12:24:22;;;;;;;3.22;2.13;;;;;;;19.79;48.10;98957.50;4749118;30;20141;-67
2021/08/22 12:26:57;;;;;;;9.45;2.25;;;;;;;19.86;48.27;98957.88;4733812;30;20064;-64
2021/08/22 12:29:31;;;;;;;5.13;2.17;;;;;;;19.99;47.81;98958.88;4733853;30;20527;-63
2021/08/22 12:32:11;;;;;;;2.60;1.80;;;;;;;19.91;47.80;98955.03;4733923;30;20049;-66
2021/08/22 12:34:36;;;;;;;3.10;1.92;;;;;;;19.96;47.44;98952.22;4735363;30;20423;-65
2021/08/22 12:37:13;;;;;;;1.83;1.70;;;;;;;20.08;47.20;98963.16;4733986;30;20040;-66
2021/08/22 12:39:39;;;;;;;2.70;2.00;;;;;;;20.10;46.83;98962.88;4735317;30;20147;-63
2021/08/22 12:42:05;;;;;;;3.53;2.15;;;;;;;20.05;46.82;98968.38;4719370;30;20040;-65
2021/08/22 12:44:31;;;;;;;6.43;2.10;;;;;;;20.01;47.12;98965.53;4735348;30;20114;-65
2021/08/22 12:47:04;;;;;;;5.53;2.53;;;;;;;19.99;47.14;98972.31;4734120;30;20432;-65
2021/08/22 12:49:31;;;;;;;4.32;2.25;;;;;;;19.96;47.61;98963.75;4735104;30;20054;-66